createdAt,value
2017-11-25T00:00:42.338Z,92.40
2017-11-25T00:03:11.222Z,92.60
2017-11-25T00:05:40.124Z,92.70
2017-11-25T00:08:08.247Z,92.70
2017-11-25T00:10:36.407Z,92.90
2017-11-25T00:13:04.533Z,92.60
2017-11-25T00:15:33.452Z,92.60
2017-11-25T00:18:01.621Z,92.50
2017-11-25T00:20:29.768Z,92.00
2017-11-25T00:22:58.681Z,92.00
2017-11-25T00:25:26.833Z,92.00
2017-11-25T00:27:55.756Z,92.00
2017-11-25T00:30:23.898Z,92.00
2017-11-25T00:32:52.789Z,91.60
2017-11-25T00:35:20.925Z,91.60
2017-11-25T00:37:49.084Z,91.40
2017-11-25T00:40:17.210Z,91.30
2017-11-25T00:42:45.349Z,91.30
2017-11-25T00:45:13.485Z,91.30
2017-11-25T00:47:42.509Z,91.60
2017-11-25T00:50:11.409Z,91.30
2017-11-25T00:52:40.314Z,91.50
2017-11-25T00:55:08.462Z,91.50
2017-11-25T00:57:37.557Z,91.70
2017-11-25T01:00:05.745Z,92.00
2017-11-25T01:02:33.865Z,92.50
2017-11-25T01:05:01.993Z,92.90
2017-11-25T01:07:30.929Z,94.20
2017-11-25T01:09:59.042Z,94.20
2017-11-25T01:12:27.181Z,94.70
2017-11-25T01:14:55.315Z,95.00
2017-11-25T01:17:23.516Z,95.30
2017-11-25T01:19:51.685Z,95.40
2017-11-25T01:22:19.873Z,95.40
2017-11-25T01:24:48.046Z,95.30
2017-11-25T01:27:16.228Z,95.40
2017-11-25T01:29:44.391Z,95.40
2017-11-25T01:32:12.736Z,95.20
2017-11-25T01:34:40.897Z,94.90
2017-11-25T01:37:09.823Z,94.60
2017-11-25T01:39:38.009Z,94.60
2017-11-25T01:42:06.184Z,94.50
2017-11-25T01:44:34.375Z,94.00
2017-11-25T01:47:02.541Z,94.20
2017-11-25T01:49:30.729Z,94.20
2017-11-25T01:52:00.407Z,94.20
2017-11-25T01:54:28.589Z,94.10
2017-11-25T01:56:56.727Z,94.30
2017-11-25T01:59:24.914Z,94.30
2017-11-25T02:01:53.085Z,94.10
2017-11-25T02:04:21.259Z,94.10
2017-11-25T02:06:49.414Z,94.10
2017-11-25T02:09:17.579Z,94.00
2017-11-25T02:11:45.747Z,94.00
2017-11-25T02:14:13.902Z,93.90
2017-11-25T02:16:43.486Z,94.20
2017-11-25T02:19:11.668Z,93.90
2017-11-25T02:21:39.800Z,94.20
2017-11-25T02:24:07.987Z,94.20
2017-11-25T02:26:36.152Z,94.10
2017-11-25T02:29:04.331Z,94.10
2017-11-25T02:31:32.504Z,94.20
2017-11-25T02:34:00.707Z,93.90
2017-11-25T02:36:28.869Z,93.80
2017-11-25T02:38:57.074Z,94.00
2017-11-25T02:41:26.061Z,93.70
2017-11-25T02:43:55.036Z,94.10
2017-11-25T02:46:23.990Z,93.90
2017-11-25T02:48:52.156Z,93.90
2017-11-25T02:51:20.347Z,94.20
2017-11-25T02:53:48.538Z,94.10
2017-11-25T02:56:16.712Z,94.10
2017-11-25T02:58:44.908Z,94.00
2017-11-25T03:01:13.090Z,93.80
2017-11-25T03:03:42.115Z,94.00
2017-11-25T03:06:10.309Z,93.90
2017-11-25T03:08:38.483Z,94.00
2017-11-25T03:11:06.659Z,94.00
2017-11-25T03:13:34.813Z,94.00
2017-11-25T03:16:02.964Z,93.80
2017-11-25T03:18:31.132Z,93.90
2017-11-25T03:20:59.294Z,93.90
2017-11-25T03:23:28.212Z,93.90
2017-11-25T03:25:56.421Z,93.90
2017-11-25T03:28:24.597Z,94.00
2017-11-25T03:30:52.762Z,93.90
2017-11-25T03:33:20.985Z,93.80
2017-11-25T03:35:49.168Z,93.70
2017-11-25T03:38:17.326Z,93.90
2017-11-25T03:40:46.282Z,94.00
2017-11-25T03:43:14.467Z,94.00
2017-11-25T03:45:42.665Z,94.10
2017-11-25T03:48:11.595Z,93.90
2017-11-25T03:50:39.779Z,93.90
2017-11-25T03:53:07.924Z,93.90
2017-11-25T03:55:36.728Z,93.90
2017-11-25T03:58:04.933Z,93.90
2017-11-25T04:00:33.108Z,94.00
2017-11-25T04:03:01.290Z,94.20
2017-11-25T04:05:30.250Z,94.20
2017-11-25T04:07:58.430Z,94.20
2017-11-25T04:10:26.601Z,94.10
2017-11-25T04:12:54.767Z,94.10
2017-11-25T04:15:22.934Z,94.10
2017-11-25T04:17:51.109Z,94.20
2017-11-25T04:20:19.276Z,94.10
2017-11-25T04:22:47.452Z,94.10
2017-11-25T04:25:15.645Z,93.90
2017-11-25T04:27:43.820Z,94.10
2017-11-25T04:30:11.990Z,94.20
2017-11-25T04:32:40.181Z,94.30
2017-11-25T04:35:09.078Z,93.90
2017-11-25T04:37:38.002Z,94.40
2017-11-25T04:40:06.201Z,94.40
2017-11-25T04:42:34.373Z,94.30
2017-11-25T04:45:02.563Z,94.30
2017-11-25T04:47:30.774Z,94.50
2017-11-25T04:49:59.678Z,94.00
2017-11-25T04:52:27.845Z,94.00
2017-11-25T04:54:56.802Z,94.00
2017-11-25T04:57:25.011Z,94.00
2017-11-25T04:59:53.174Z,94.20
2017-11-25T05:02:22.133Z,94.30
2017-11-25T05:04:50.308Z,94.20
2017-11-25T05:07:18.492Z,94.40
2017-11-25T05:09:46.649Z,94.60
2017-11-25T05:12:14.843Z,94.50
2017-11-25T05:14:43.885Z,94.80
2017-11-25T05:17:12.120Z,94.70
2017-11-25T05:19:40.343Z,94.80
2017-11-25T05:22:08.527Z,94.70
2017-11-25T05:24:36.700Z,94.50
2017-11-25T05:27:04.869Z,94.60
2017-11-25T05:29:33.049Z,94.70
2017-11-25T05:32:01.245Z,94.80
2017-11-25T05:34:29.444Z,94.60
2017-11-25T05:36:59.218Z,94.80
2017-11-25T05:39:27.403Z,94.80
2017-11-25T05:41:55.598Z,94.80
2017-11-25T05:44:24.526Z,94.90
2017-11-25T05:46:52.695Z,95.30
2017-11-25T05:49:20.861Z,95.10
2017-11-25T05:51:49.064Z,94.80
2017-11-25T05:54:17.243Z,94.80
2017-11-25T05:56:45.430Z,94.60
2017-11-25T05:59:14.360Z,95.10
2017-11-25T06:01:42.522Z,95.10
2017-11-25T06:04:10.753Z,95.20
2017-11-25T06:06:38.938Z,95.20
2017-11-25T06:09:07.110Z,95.60
2017-11-25T06:11:35.269Z,95.30
2017-11-25T06:14:03.470Z,95.40
2017-11-25T06:16:32.412Z,95.40
2017-11-25T06:19:00.645Z,95.40
2017-11-25T06:21:28.817Z,95.70
2017-11-25T06:23:57.766Z,95.50
2017-11-25T06:26:25.940Z,95.40
2017-11-25T06:28:54.117Z,95.80
2017-11-25T06:31:22.299Z,95.70
2017-11-25T06:33:50.473Z,95.70
2017-11-25T06:36:18.673Z,95.90
2017-11-25T06:38:47.602Z,95.90
2017-11-25T06:41:15.787Z,95.90
2017-11-25T06:43:44.596Z,95.90
2017-11-25T06:46:12.924Z,96.00
2017-11-25T06:48:41.125Z,95.70
2017-11-25T06:51:09.304Z,95.80
2017-11-25T06:53:37.472Z,95.50
2017-11-25T06:56:05.675Z,95.20
2017-11-25T06:58:33.844Z,95.40
2017-11-25T07:01:02.075Z,95.20
2017-11-25T07:03:30.265Z,95.40
2017-11-25T07:05:58.436Z,95.70
2017-11-25T07:08:26.610Z,95.70
2017-11-25T07:10:54.801Z,95.80
2017-11-25T07:13:22.985Z,95.70
2017-11-25T07:15:51.161Z,95.70
2017-11-25T07:18:19.431Z,95.70
2017-11-25T07:20:47.605Z,95.70
2017-11-25T07:23:15.810Z,95.60
2017-11-25T07:25:44.015Z,95.90
2017-11-25T07:28:12.183Z,95.70
2017-11-25T07:30:40.376Z,95.80
2017-11-25T07:33:08.554Z,95.70
2017-11-25T07:35:36.735Z,95.70
2017-11-25T07:38:04.920Z,95.90
2017-11-25T07:40:33.110Z,95.60
2017-11-25T07:43:02.038Z,95.70
2017-11-25T07:45:30.220Z,95.60
2017-11-25T07:47:58.408Z,95.50
2017-11-25T07:50:26.573Z,95.00
2017-11-25T07:52:54.781Z,94.50
2017-11-25T07:55:22.959Z,95.00
2017-11-25T07:57:51.899Z,95.20
2017-11-25T08:00:20.055Z,95.20
2017-11-25T08:02:48.248Z,95.00
2017-11-25T08:05:16.425Z,95.30
2017-11-25T08:07:44.620Z,95.30
2017-11-25T08:10:12.867Z,95.20
2017-11-25T08:12:41.530Z,95.10
2017-11-25T08:15:09.676Z,95.10
2017-11-25T08:17:38.604Z,94.50
2017-11-25T08:20:06.783Z,94.50
2017-11-25T08:22:34.900Z,94.80
2017-11-25T08:25:03.046Z,94.50
2017-11-25T08:27:31.162Z,93.70
2017-11-25T08:30:00.099Z,93.10
2017-11-25T08:32:28.268Z,93.10
2017-11-25T08:34:56.411Z,93.30
2017-11-25T08:37:25.301Z,93.70
2017-11-25T08:39:53.465Z,93.70
2017-11-25T08:42:22.508Z,93.60
2017-11-25T08:44:50.630Z,93.50
2017-11-25T08:47:18.791Z,92.90
2017-11-25T08:49:47.680Z,93.30
2017-11-25T08:52:16.607Z,93.10
2017-11-25T08:54:44.771Z,93.10
2017-11-25T08:57:13.668Z,93.40
2017-11-25T08:59:41.810Z,93.40
2017-11-25T09:02:10.748Z,94.10
2017-11-25T09:04:38.910Z,94.10
2017-11-25T09:07:07.046Z,94.10
2017-11-25T09:09:35.929Z,94.20
2017-11-25T09:12:05.155Z,93.70
2017-11-25T09:14:33.280Z,93.70
2017-11-25T09:17:01.496Z,93.20
2017-11-25T09:19:30.383Z,93.20
2017-11-25T09:21:58.525Z,93.20
2017-11-25T09:24:26.718Z,93.50
2017-11-25T09:26:55.623Z,93.50
2017-11-25T09:29:24.517Z,93.60
2017-11-25T09:31:52.662Z,93.60
2017-11-25T09:34:20.829Z,93.70
2017-11-25T09:36:48.978Z,93.70
2017-11-25T09:39:17.142Z,93.90
2017-11-25T09:41:45.354Z,93.70
2017-11-25T09:44:13.545Z,93.70
2017-11-25T09:46:42.438Z,93.70
2017-11-25T09:49:10.590Z,93.70
2017-11-25T09:51:38.724Z,93.70
2017-11-25T09:54:06.865Z,93.70
2017-11-25T09:56:35.036Z,93.70
2017-11-25T09:59:03.926Z,94.20
2017-11-25T10:01:32.069Z,94.10
2017-11-25T10:04:00.207Z,93.90
2017-11-25T10:06:28.343Z,93.80
2017-11-25T10:08:56.543Z,93.60
2017-11-25T10:11:24.728Z,93.60
2017-11-25T10:13:53.621Z,93.70
2017-11-25T10:16:21.770Z,93.70
2017-11-25T10:18:49.901Z,93.50
2017-11-25T10:21:18.804Z,93.90
2017-11-25T10:23:46.985Z,93.80
2017-11-25T10:26:15.137Z,93.70
2017-11-25T10:28:43.905Z,93.70
2017-11-25T10:31:12.022Z,93.50
2017-11-25T10:33:40.156Z,93.80
2017-11-25T10:36:08.303Z,93.80
2017-11-25T10:38:36.438Z,93.80
2017-11-25T10:41:04.610Z,93.80
2017-11-25T10:43:32.833Z,93.80
2017-11-25T10:46:00.978Z,94.00
2017-11-25T10:48:29.114Z,93.60
2017-11-25T10:50:57.260Z,93.60
2017-11-25T10:53:25.417Z,93.70
2017-11-25T10:55:54.337Z,93.20
2017-11-25T10:58:22.465Z,93.20
2017-11-25T11:00:50.594Z,93.30
2017-11-25T11:03:18.708Z,93.30
2017-11-25T11:05:46.887Z,93.30
2017-11-25T11:08:15.015Z,93.30
2017-11-25T11:10:43.942Z,93.10
2017-11-25T11:13:12.101Z,93.10
2017-11-25T11:15:40.218Z,93.20
2017-11-25T11:18:08.362Z,92.70
2017-11-25T11:20:36.518Z,92.60
2017-11-25T11:23:04.682Z,92.20
2017-11-25T11:25:32.819Z,92.40
2017-11-25T11:28:00.954Z,92.70
2017-11-25T11:30:29.103Z,92.30
2017-11-25T11:32:57.249Z,92.70
2017-11-25T11:35:26.152Z,92.10
2017-11-25T11:37:54.290Z,92.10
2017-11-25T11:40:22.476Z,92.60
2017-11-25T11:42:51.378Z,92.10
2017-11-25T11:45:20.299Z,92.20
2017-11-25T11:47:49.194Z,92.30
2017-11-25T11:50:17.379Z,92.20
2017-11-25T11:52:45.509Z,92.30
2017-11-25T11:55:13.671Z,91.70
2017-11-25T11:57:42.590Z,91.20
2017-11-25T12:00:10.742Z,91.20
2017-11-25T12:02:39.651Z,91.90
2017-11-25T12:05:07.774Z,91.90
2017-11-25T12:07:35.926Z,91.80
2017-11-25T12:10:04.098Z,91.90
2017-11-25T12:12:32.237Z,91.40
2017-11-25T12:15:00.370Z,91.40
2017-11-25T12:17:28.507Z,91.10
2017-11-25T12:19:56.638Z,91.50
2017-11-25T12:22:25.547Z,91.50
2017-11-25T12:24:53.701Z,91.40
2017-11-25T12:27:21.885Z,91.30
2017-11-25T12:29:50.066Z,91.20
2017-11-25T12:32:18.218Z,91.00
2017-11-25T12:34:47.125Z,90.60
2017-11-25T12:37:16.076Z,90.80
2017-11-25T12:39:44.974Z,91.20
2017-11-25T12:42:13.164Z,91.20
2017-11-25T12:44:41.325Z,90.70
2017-11-25T12:47:10.271Z,91.50
2017-11-25T12:49:38.397Z,91.20
2017-11-25T12:52:07.336Z,91.20
2017-11-25T12:54:35.457Z,91.20
2017-11-25T12:57:04.360Z,91.20
2017-11-25T12:59:32.568Z,91.20
2017-11-25T13:02:01.515Z,90.20
2017-11-25T13:04:30.522Z,90.40
2017-11-25T13:06:59.374Z,90.40
2017-11-25T13:09:27.515Z,90.70
2017-11-25T13:11:55.639Z,90.60
2017-11-25T13:14:24.547Z,88.00
2017-11-25T13:16:52.686Z,88.00
2017-11-25T13:19:21.626Z,87.80
2017-11-25T13:21:49.772Z,87.80
2017-11-25T13:24:18.685Z,90.30
2017-11-25T13:26:46.811Z,90.00
2017-11-25T13:29:15.745Z,90.30
2017-11-25T13:31:43.890Z,90.20
2017-11-25T13:34:12.775Z,89.20
2017-11-25T13:36:41.683Z,88.90
2017-11-25T13:39:10.594Z,88.60
2017-11-25T13:41:38.758Z,88.60
2017-11-25T13:44:06.927Z,88.20
2017-11-25T13:46:35.818Z,88.60
2017-11-25T13:49:03.960Z,88.50
2017-11-25T13:51:32.094Z,88.50
2017-11-25T13:54:00.223Z,89.60
2017-11-25T13:56:29.153Z,89.40
2017-11-25T13:58:57.293Z,89.30
2017-11-25T14:01:25.434Z,88.10
2017-11-25T14:03:53.576Z,89.90
2017-11-25T14:06:21.726Z,88.20
2017-11-25T14:08:49.873Z,88.50
2017-11-25T14:11:18.782Z,89.20
2017-11-25T14:13:47.705Z,89.90
2017-11-25T14:16:15.840Z,89.90
2017-11-25T14:18:44.012Z,88.20
2017-11-25T14:21:12.170Z,88.50
2017-11-25T14:23:40.318Z,87.00
2017-11-25T14:26:08.540Z,87.10
2017-11-25T14:28:36.693Z,85.90
2017-11-25T14:31:05.599Z,85.70
2017-11-25T14:33:34.501Z,85.70
2017-11-25T14:36:02.637Z,85.60
2017-11-25T14:38:31.565Z,86.50
2017-11-25T14:40:59.718Z,86.20
2017-11-25T14:43:27.871Z,85.20
2017-11-25T14:45:56.043Z,85.40
2017-11-25T14:48:24.168Z,85.20
2017-11-25T14:50:52.310Z,85.20
2017-11-25T14:53:21.207Z,87.20
2017-11-25T14:55:50.104Z,86.30
2017-11-25T14:58:18.218Z,86.30
2017-11-25T15:00:46.366Z,86.40
2017-11-25T15:03:14.495Z,86.60
2017-11-25T15:05:43.411Z,85.80
2017-11-25T15:08:11.540Z,85.80
2017-11-25T15:10:39.674Z,87.00
2017-11-25T15:13:07.833Z,87.80
2017-11-25T15:15:35.967Z,88.50
2017-11-25T15:18:05.783Z,89.90
2017-11-25T15:20:34.690Z,88.90
2017-11-25T15:23:02.867Z,88.70
2017-11-25T15:25:31.008Z,89.60
2017-11-25T15:27:59.172Z,90.20
2017-11-25T15:30:27.330Z,90.50
2017-11-25T15:32:55.433Z,90.50
2017-11-25T15:35:23.606Z,90.50
2017-11-25T15:37:51.778Z,90.60
2017-11-25T15:40:19.896Z,90.70
2017-11-25T15:42:48.077Z,90.70
2017-11-25T15:45:16.209Z,91.20
2017-11-25T15:47:45.114Z,91.50
2017-11-25T15:50:13.254Z,91.50
2017-11-25T15:52:42.157Z,91.60
2017-11-25T15:55:11.078Z,91.90
2017-11-25T15:57:39.198Z,91.90
2017-11-25T16:00:07.332Z,91.70
2017-11-25T16:02:35.506Z,92.40
2017-11-25T16:05:03.630Z,92.50
2017-11-25T16:07:32.596Z,92.40
2017-11-25T16:10:00.745Z,92.40
2017-11-25T16:12:28.937Z,91.90
2017-11-25T16:14:57.098Z,91.90
2017-11-25T16:17:25.254Z,92.50
2017-11-25T16:19:53.385Z,92.90
2017-11-25T16:22:21.530Z,92.70
2017-11-25T16:24:49.678Z,92.60
2017-11-25T16:27:17.805Z,92.60
2017-11-25T16:29:46.711Z,92.00
2017-11-25T16:32:15.643Z,92.60
2017-11-25T16:34:43.797Z,92.50
2017-11-25T16:37:11.969Z,92.30
2017-11-25T16:39:40.112Z,91.80
2017-11-25T16:42:09.011Z,92.50
2017-11-25T16:44:37.157Z,92.40
2017-11-25T16:47:06.058Z,92.40
2017-11-25T16:49:34.979Z,92.80
2017-11-25T16:52:03.136Z,92.80
2017-11-25T16:54:32.069Z,92.90
2017-11-25T16:57:00.235Z,92.90
2017-11-25T16:59:29.361Z,92.30
2017-11-25T17:01:57.506Z,91.50
2017-11-25T17:04:25.639Z,92.10
2017-11-25T17:06:53.767Z,91.70
2017-11-25T17:09:21.957Z,91.80
2017-11-25T17:11:50.094Z,91.90
2017-11-25T17:14:19.082Z,92.00
2017-11-25T17:16:47.213Z,91.70
2017-11-25T17:19:16.103Z,91.50
2017-11-25T17:21:45.033Z,90.60
2017-11-25T17:24:13.178Z,90.80
2017-11-25T17:26:41.374Z,91.40
2017-11-25T17:29:10.435Z,91.60
2017-11-25T17:31:39.383Z,90.80
2017-11-25T17:34:07.518Z,90.80
2017-11-25T17:36:35.665Z,90.40
2017-11-25T17:39:04.593Z,91.20
2017-11-25T17:41:32.750Z,91.10
2017-11-25T17:44:00.956Z,90.60
2017-11-25T17:46:29.147Z,91.30
2017-11-25T17:48:57.345Z,91.20
2017-11-25T17:51:25.618Z,91.30
2017-11-25T17:53:54.202Z,91.30
2017-11-25T17:56:23.098Z,91.60
2017-11-25T17:58:52.019Z,91.70
2017-11-25T18:01:20.180Z,91.60
2017-11-25T18:03:48.339Z,91.70
2017-11-25T18:06:16.473Z,91.60
2017-11-25T18:08:44.622Z,91.70
2017-11-25T18:11:12.782Z,91.80
2017-11-25T18:13:40.903Z,91.80
2017-11-25T18:16:09.819Z,92.20
2017-11-25T18:18:38.813Z,91.90
2017-11-25T18:21:06.958Z,91.90
2017-11-25T18:23:35.991Z,91.90
2017-11-25T18:26:04.162Z,91.90
2017-11-25T18:28:32.304Z,91.70
2017-11-25T18:31:00.505Z,91.60
2017-11-25T18:33:28.632Z,91.60
2017-11-25T18:35:56.770Z,91.60
2017-11-25T18:38:24.930Z,91.50
2017-11-25T18:40:53.087Z,91.20
2017-11-25T18:43:22.049Z,91.30
2017-11-25T18:45:50.359Z,91.20
2017-11-25T18:48:18.638Z,91.20
2017-11-25T18:50:46.842Z,91.30
2017-11-25T18:53:15.810Z,91.70
2017-11-25T18:55:43.965Z,91.60
2017-11-25T18:58:12.908Z,91.40
2017-11-25T19:00:41.057Z,91.40
2017-11-25T19:03:09.206Z,91.70
2017-11-25T19:05:37.338Z,91.50
2017-11-25T19:08:05.525Z,90.90
2017-11-25T19:10:35.052Z,91.60
2017-11-25T19:13:03.185Z,91.50
2017-11-25T19:15:31.319Z,91.40
2017-11-25T19:17:59.452Z,91.30
2017-11-25T19:20:28.370Z,91.10
2017-11-25T19:22:56.516Z,91.10
2017-11-25T19:25:25.430Z,91.40
2017-11-25T19:27:53.594Z,91.40
2017-11-25T19:30:21.800Z,91.30
2017-11-25T19:32:49.968Z,91.60
2017-11-25T19:35:18.137Z,91.60
2017-11-25T19:37:46.300Z,91.60
2017-11-25T19:40:14.454Z,91.30
2017-11-25T19:42:42.616Z,91.00
2017-11-25T19:45:10.777Z,90.60
2017-11-25T19:47:38.924Z,91.10
2017-11-25T19:50:07.578Z,91.20
2017-11-25T19:52:35.735Z,91.00
2017-11-25T19:55:04.635Z,91.10
2017-11-25T19:57:32.784Z,91.10
2017-11-25T20:00:01.692Z,91.10
2017-11-25T20:02:29.859Z,91.10
2017-11-25T20:04:58.765Z,91.10
2017-11-25T20:07:26.946Z,91.10
2017-11-25T20:09:55.143Z,90.70
2017-11-25T20:12:23.267Z,90.80
2017-11-25T20:14:51.422Z,90.80
2017-11-25T20:17:20.329Z,90.70
2017-11-25T20:19:49.243Z,91.00
2017-11-25T20:22:17.371Z,91.00
2017-11-25T20:24:45.562Z,91.10
2017-11-25T20:27:14.433Z,91.10
2017-11-25T20:29:43.357Z,91.20
2017-11-25T20:32:12.284Z,91.10
2017-11-25T20:34:40.408Z,91.10
2017-11-25T20:37:09.330Z,91.20
2017-11-25T20:39:37.441Z,91.00
2017-11-25T20:42:05.603Z,90.50
2017-11-25T20:44:33.734Z,90.40
2017-11-25T20:47:01.885Z,90.20
2017-11-25T20:49:30.787Z,89.80
2017-11-25T20:51:59.696Z,90.30
2017-11-25T20:54:27.858Z,90.00
2017-11-25T20:56:55.982Z,90.10
2017-11-25T20:59:24.145Z,89.70
2017-11-25T21:01:52.283Z,89.60
2017-11-25T21:04:20.467Z,89.90
2017-11-25T21:06:48.608Z,89.90
2017-11-25T21:09:16.771Z,89.70
2017-11-25T21:11:45.676Z,90.00
2017-11-25T21:14:13.803Z,90.00
2017-11-25T21:16:41.971Z,89.50
2017-11-25T21:19:10.128Z,89.90
2017-11-25T21:21:39.033Z,88.40
2017-11-25T21:24:07.193Z,88.40
2017-11-25T21:26:35.328Z,90.00
2017-11-25T21:29:03.476Z,90.00
2017-11-25T21:31:32.422Z,90.20
2017-11-25T21:34:00.565Z,90.20
2017-11-25T21:36:28.683Z,90.30
2017-11-25T21:38:56.862Z,90.30
2017-11-25T21:41:28.711Z,90.50
2017-11-25T21:43:56.858Z,90.90
2017-11-25T21:46:25.194Z,90.90
2017-11-25T21:48:54.107Z,91.10
2017-11-25T21:51:22.242Z,91.10
2017-11-25T21:53:51.187Z,91.40
2017-11-25T21:56:20.080Z,91.20
2017-11-25T21:58:48.240Z,91.20
2017-11-25T22:01:16.401Z,91.30
2017-11-25T22:03:44.558Z,91.30
2017-11-25T22:06:13.475Z,91.30
2017-11-25T22:08:41.610Z,91.20
2017-11-25T22:11:10.538Z,91.30
2017-11-25T22:13:38.691Z,91.30
2017-11-25T22:16:06.838Z,91.00
2017-11-25T22:18:35.005Z,91.00
2017-11-25T22:21:03.143Z,91.00
2017-11-25T22:23:31.302Z,91.00
2017-11-25T22:25:59.441Z,91.20
2017-11-25T22:28:28.369Z,90.80
2017-11-25T22:30:56.516Z,90.60
2017-11-25T22:33:25.424Z,90.80
2017-11-25T22:35:53.612Z,90.80
2017-11-25T22:38:21.745Z,90.80
2017-11-25T22:40:50.862Z,90.70
2017-11-25T22:43:19.748Z,90.80
2017-11-25T22:45:47.908Z,90.80
2017-11-25T22:48:16.049Z,90.80
2017-11-25T22:50:44.187Z,90.90
2017-11-25T22:53:12.352Z,90.40
2017-11-25T22:55:40.478Z,90.50
2017-11-25T22:58:09.379Z,90.50
2017-11-25T23:00:38.305Z,90.40
2017-11-25T23:03:06.425Z,90.40
2017-11-25T23:05:40.965Z,90.30
2017-11-25T23:08:09.882Z,90.30
2017-11-25T23:10:41.928Z,90.30
2017-11-25T23:13:10.060Z,90.30
2017-11-25T23:15:38.191Z,90.30
2017-11-25T23:18:06.323Z,90.10
2017-11-25T23:20:35.221Z,90.00
2017-11-25T23:23:04.202Z,89.70
2017-11-25T23:25:32.334Z,89.60
2017-11-25T23:28:00.498Z,89.60
2017-11-25T23:30:28.620Z,90.00
2017-11-25T23:32:57.540Z,89.80
2017-11-25T23:35:25.689Z,89.60
2017-11-25T23:37:54.598Z,90.10
2017-11-25T23:40:22.759Z,90.10
2017-11-25T23:42:50.888Z,89.50
2017-11-25T23:45:19.035Z,90.10
2017-11-25T23:47:47.947Z,89.30
2017-11-25T23:50:16.105Z,89.30
2017-11-25T23:52:44.233Z,89.20
2017-11-25T23:55:13.145Z,88.90
2017-11-25T23:57:41.296Z,88.90
